If you wish to contribute or participate in the discussions about articles you are invited to join SKYbrary as a registered user

 Actions

Ouagadougou International Airport

From SKYbrary Wiki

DFFD
Airport
ICAO: DFFD – IATA: OUA
Summary
Name Ouagadougou International Airport
Region Africa
Territory Burkina Faso BF.gif
Location Ouagadougou
Serving Ouagadougou
Elevation 316.078 m <br />1,037 ft <br />1,037 ft316.078 m <br />
Coordinates 12° 21' 13.00" N, 1° 30' 43.00" W
Runways
Designator Length Width Surface ROPS
04L/22R 3028 m9,934.383 ft <br /> 45 m147.638 ft <br /> ASP yes/yes
04R/22L 1911 m6,269.685 ft <br /> 30 m98.425 ft <br /> LAT no/no


METAR
Observation DFFD 250900Z 29004KT 250V330 9999 -RA SCT016 SCT020 22/22 Q1016 NOSIG
Station Ouagadougou
Date/Time 25 June 2021 09:00:00
Wind direction 290°
Wind speed 04 kts
Lowest cloud amount scattered clouds
Temperature 22°C
Dew point 22°C
Humidity 100%
QNH 1016 hPa
Weather condition light rain

Ouagadougou International Airport

ICAO: DFFD IATA: OUA

Description

Ouagadougou International Airport is an airport located in the centre of the city of Ouagadougou in Burkina Faso.

Maps

Terrain

Loading map...

Airport Layout

Loading map...


Accidents & Serious Incidents at or in vicinity of DFFD

None on SKYbrary